sensor_id;sensor_type;location;lat;lon;timestamp;temperature;humidity
26575;DHT22;67165;50.256;10.978;2023-12-29T00:01:33;8.20;98.00
26575;DHT22;67165;50.256;10.978;2023-12-29T00:04:00;8.20;98.00
26575;DHT22;67165;50.256;10.978;2023-12-29T00:06:26;8.20;98.00
26575;DHT22;67165;50.256;10.978;2023-12-29T00:08:51;8.10;98.00
26575;DHT22;67165;50.256;10.978;2023-12-29T00:11:21;8.10;98.00
26575;DHT22;67165;50.256;10.978;2023-12-29T00:13:47;8.20;98.00
26575;DHT22;67165;50.256;10.978;2023-12-29T00:16:12;8.20;98.00
26575;DHT22;67165;50.256;10.978;2023-12-29T00:18:38;8.10;98.00
26575;DHT22;67165;50.256;10.978;2023-12-29T00:21:05;8.10;98.00
26575;DHT22;67165;50.256;10.978;2023-12-29T00:23:30;8.10;98.00
26575;DHT22;67165;50.256;10.978;2023-12-29T00:25:56;8.10;98.00
26575;DHT22;67165;50.256;10.978;2023-12-29T00:28:21;8.10;98.00
26575;DHT22;67165;50.256;10.978;2023-12-29T00:30:47;8.10;98.00
26575;DHT22;67165;50.256;10.978;2023-12-29T00:33:13;8.20;98.00
26575;DHT22;67165;50.256;10.978;2023-12-29T00:35:38;8.20;98.00
26575;DHT22;67165;50.256;10.978;2023-12-29T00:38:05;8.10;98.00
26575;DHT22;67165;50.256;10.978;2023-12-29T00:40:31;8.20;98.00
26575;DHT22;67165;50.256;10.978;2023-12-29T00:42:57;8.20;98.00
26575;DHT22;67165;50.256;10.978;2023-12-29T00:45:22;8.20;98.00
26575;DHT22;67165;50.256;10.978;2023-12-29T00:47:48;8.20;98.00
26575;DHT22;67165;50.256;10.978;2023-12-29T00:50:16;8.30;98.00
26575;DHT22;67165;50.256;10.978;2023-12-29T00:52:41;8.20;98.00
26575;DHT22;67165;50.256;10.978;2023-12-29T00:55:07;8.20;98.00
26575;DHT22;67165;50.256;10.978;2023-12-29T00:57:33;8.20;98.00
26575;DHT22;67165;50.256;10.978;2023-12-29T01:00:00;8.30;98.00
26575;DHT22;67165;50.256;10.978;2023-12-29T01:02:25;8.30;98.00
26575;DHT22;67165;50.256;10.978;2023-12-29T01:04:51;8.30;98.00
26575;DHT22;67165;50.256;10.978;2023-12-29T01:07:17;8.20;98.00
26575;DHT22;67165;50.256;10.978;2023-12-29T01:09:42;8.20;98.00
26575;DHT22;67165;50.256;10.978;2023-12-29T01:12:08;8.30;98.00
26575;DHT22;67165;50.256;10.978;2023-12-29T01:14:33;8.20;98.00
26575;DHT22;67165;50.256;10.978;2023-12-29T01:16:59;8.20;98.00
26575;DHT22;67165;50.256;10.978;2023-12-29T01:19:25;8.20;98.00
26575;DHT22;67165;50.256;10.978;2023-12-29T01:21:50;8.10;98.00
26575;DHT22;67165;50.256;10.978;2023-12-29T01:24:16;8.10;98.00
26575;DHT22;67165;50.256;10.978;2023-12-29T01:26:41;8.10;98.00
26575;DHT22;67165;50.256;10.978;2023-12-29T01:29:07;8.10;98.00
26575;DHT22;67165;50.256;10.978;2023-12-29T01:31:33;8.10;98.00
26575;DHT22;67165;50.256;10.978;2023-12-29T01:33:59;8.00;98.00
26575;DHT22;67165;50.256;10.978;2023-12-29T01:36:25;8.00;98.00
26575;DHT22;67165;50.256;10.978;2023-12-29T01:38:51;8.00;98.00
26575;DHT22;67165;50.256;10.978;2023-12-29T01:41:19;7.90;98.00
26575;DHT22;67165;50.256;10.978;2023-12-29T01:46:28;7.70;98.00
26575;DHT22;67165;50.256;10.978;2023-12-29T01:48:54;7.60;98.00
26575;DHT22;67165;50.256;10.978;2023-12-29T01:51:25;7.60;98.00
26575;DHT22;67165;50.256;10.978;2023-12-29T01:53:52;7.50;98.00
26575;DHT22;67165;50.256;10.978;2023-12-29T01:56:19;7.50;98.00
26575;DHT22;67165;50.256;10.978;2023-12-29T01:58:46;7.40;98.00
26575;DHT22;67165;50.256;10.978;2023-12-29T02:01:14;7.30;98.00
26575;DHT22;67165;50.256;10.978;2023-12-29T02:03:40;7.30;98.00
26575;DHT22;67165;50.256;10.978;2023-12-29T02:06:09;7.30;98.00
26575;DHT22;67165;50.256;10.978;2023-12-29T02:08:40;7.30;98.00
26575;DHT22;67165;50.256;10.978;2023-12-29T02:11:06;7.30;98.00
26575;DHT22;67165;50.256;10.978;2023-12-29T02:13:31;7.30;98.00
26575;DHT22;67165;50.256;10.978;2023-12-29T02:16:04;7.30;98.00
26575;DHT22;67165;50.256;10.978;2023-12-29T02:18:33;7.30;98.00
26575;DHT22;67165;50.256;10.978;2023-12-29T02:20:59;7.20;98.00
26575;DHT22;67165;50.256;10.978;2023-12-29T02:23:28;7.20;98.00
26575;DHT22;67165;50.256;10.978;2023-12-29T02:25:58;7.20;98.00
26575;DHT22;67165;50.256;10.978;2023-12-29T02:28:26;7.20;98.00
26575;DHT22;67165;50.256;10.978;2023-12-29T02:31:14;7.20;98.00
26575;DHT22;67165;50.256;10.978;2023-12-29T02:33:43;7.10;98.00
26575;DHT22;67165;50.256;10.978;2023-12-29T02:36:10;7.10;98.00
26575;DHT22;67165;50.256;10.978;2023-12-29T02:38:38;7.10;98.00
26575;DHT22;67165;50.256;10.978;2023-12-29T02:41:04;7.20;98.00
26575;DHT22;67165;50.256;10.978;2023-12-29T02:43:33;7.30;98.00
26575;DHT22;67165;50.256;10.978;2023-12-29T02:45:59;7.30;98.00
26575;DHT22;67165;50.256;10.978;2023-12-29T02:48:25;7.20;98.00
26575;DHT22;67165;50.256;10.978;2023-12-29T02:50:50;7.20;98.00
26575;DHT22;67165;50.256;10.978;2023-12-29T02:53:16;7.10;98.00
26575;DHT22;67165;50.256;10.978;2023-12-29T02:55:42;7.10;98.00
26575;DHT22;67165;50.256;10.978;2023-12-29T02:58:09;7.10;98.00
26575;DHT22;67165;50.256;10.978;2023-12-29T03:00:34;7.10;98.00
26575;DHT22;67165;50.256;10.978;2023-12-29T03:03:00;7.10;98.00
26575;DHT22;67165;50.256;10.978;2023-12-29T03:05:26;7.10;98.00
26575;DHT22;67165;50.256;10.978;2023-12-29T03:07:51;7.10;98.00
26575;DHT22;67165;50.256;10.978;2023-12-29T03:10:17;7.10;98.00
26575;DHT22;67165;50.256;10.978;2023-12-29T03:12:43;7.10;98.00
26575;DHT22;67165;50.256;10.978;2023-12-29T03:15:08;7.10;98.00
26575;DHT22;67165;50.256;10.978;2023-12-29T03:17:34;7.10;98.00
26575;DHT22;67165;50.256;10.978;2023-12-29T03:20:01;7.10;98.00
26575;DHT22;67165;50.256;10.978;2023-12-29T03:22:27;7.20;98.00
26575;DHT22;67165;50.256;10.978;2023-12-29T03:24:53;7.20;98.00
26575;DHT22;67165;50.256;10.978;2023-12-29T03:27:18;7.10;98.00
26575;DHT22;67165;50.256;10.978;2023-12-29T03:29:44;7.10;98.00
26575;DHT22;67165;50.256;10.978;2023-12-29T03:32:10;7.10;98.00
26575;DHT22;67165;50.256;10.978;2023-12-29T03:34:35;7.20;98.00
26575;DHT22;67165;50.256;10.978;2023-12-29T03:37:01;7.20;98.00
26575;DHT22;67165;50.256;10.978;2023-12-29T03:39:27;7.30;98.00
26575;DHT22;67165;50.256;10.978;2023-12-29T03:41:52;7.30;98.00
26575;DHT22;67165;50.256;10.978;2023-12-29T03:44:18;7.30;98.00
26575;DHT22;67165;50.256;10.978;2023-12-29T03:46:44;7.30;98.00
26575;DHT22;67165;50.256;10.978;2023-12-29T03:49:09;7.40;98.00
26575;DHT22;67165;50.256;10.978;2023-12-29T03:51:35;7.40;98.00
26575;DHT22;67165;50.256;10.978;2023-12-29T03:54:01;7.40;98.00
26575;DHT22;67165;50.256;10.978;2023-12-29T03:56:26;7.40;98.00
26575;DHT22;67165;50.256;10.978;2023-12-29T03:58:52;7.40;98.00
26575;DHT22;67165;50.256;10.978;2023-12-29T04:01:18;7.50;98.00
26575;DHT22;67165;50.256;10.978;2023-12-29T04:03:45;7.40;98.00
26575;DHT22;67165;50.256;10.978;2023-12-29T04:06:11;7.40;98.00
26575;DHT22;67165;50.256;10.978;2023-12-29T04:08:37;7.40;98.00
26575;DHT22;67165;50.256;10.978;2023-12-29T04:11:04;7.50;98.00
26575;DHT22;67165;50.256;10.978;2023-12-29T04:13:30;7.50;98.00
26575;DHT22;67165;50.256;10.978;2023-12-29T04:15:56;7.50;98.00
26575;DHT22;67165;50.256;10.978;2023-12-29T04:18:23;7.50;98.00
26575;DHT22;67165;50.256;10.978;2023-12-29T04:20:49;7.60;98.00
26575;DHT22;67165;50.256;10.978;2023-12-29T04:23:15;7.60;98.00
26575;DHT22;67165;50.256;10.978;2023-12-29T04:25:41;7.60;98.00
26575;DHT22;67165;50.256;10.978;2023-12-29T04:28:08;7.60;98.00
26575;DHT22;67165;50.256;10.978;2023-12-29T04:30:34;7.50;98.00
26575;DHT22;67165;50.256;10.978;2023-12-29T04:33:00;7.50;98.00
26575;DHT22;67165;50.256;10.978;2023-12-29T04:35:25;7.50;98.00
26575;DHT22;67165;50.256;10.978;2023-12-29T04:37:51;7.50;98.00
26575;DHT22;67165;50.256;10.978;2023-12-29T04:40:17;7.40;98.00
26575;DHT22;67165;50.256;10.978;2023-12-29T04:42:43;7.40;98.00
26575;DHT22;67165;50.256;10.978;2023-12-29T04:45:09;7.40;98.00
26575;DHT22;67165;50.256;10.978;2023-12-29T04:47:35;7.40;98.00
26575;DHT22;67165;50.256;10.978;2023-12-29T04:50:01;7.40;98.00
26575;DHT22;67165;50.256;10.978;2023-12-29T04:52:27;7.40;98.00
26575;DHT22;67165;50.256;10.978;2023-12-29T04:54:53;7.40;98.00
26575;DHT22;67165;50.256;10.978;2023-12-29T04:57:18;7.50;98.00
26575;DHT22;67165;50.256;10.978;2023-12-29T04:59:44;7.50;98.00
26575;DHT22;67165;50.256;10.978;2023-12-29T05:02:10;7.40;98.00
26575;DHT22;67165;50.256;10.978;2023-12-29T05:04:35;7.50;98.00
26575;DHT22;67165;50.256;10.978;2023-12-29T05:07:01;7.50;98.00
26575;DHT22;67165;50.256;10.978;2023-12-29T05:09:26;7.50;98.00
26575;DHT22;67165;50.256;10.978;2023-12-29T05:11:52;7.50;98.00
26575;DHT22;67165;50.256;10.978;2023-12-29T05:14:18;7.50;98.00
26575;DHT22;67165;50.256;10.978;2023-12-29T05:16:44;7.40;98.00
26575;DHT22;67165;50.256;10.978;2023-12-29T05:19:09;7.40;98.00
26575;DHT22;67165;50.256;10.978;2023-12-29T05:21:35;7.40;98.00
26575;DHT22;67165;50.256;10.978;2023-12-29T05:24:01;7.50;98.00
26575;DHT22;67165;50.256;10.978;2023-12-29T05:26:26;7.50;98.00
26575;DHT22;67165;50.256;10.978;2023-12-29T05:28:52;7.40;98.00
26575;DHT22;67165;50.256;10.978;2023-12-29T05:31:18;7.40;98.00
26575;DHT22;67165;50.256;10.978;2023-12-29T05:33:44;7.50;98.00
26575;DHT22;67165;50.256;10.978;2023-12-29T05:36:11;7.40;98.00
26575;DHT22;67165;50.256;10.978;2023-12-29T05:38:37;7.40;98.00
26575;DHT22;67165;50.256;10.978;2023-12-29T05:41:04;7.30;98.00
26575;DHT22;67165;50.256;10.978;2023-12-29T05:43:33;7.20;98.00
26575;DHT22;67165;50.256;10.978;2023-12-29T05:45:59;7.20;98.00
26575;DHT22;67165;50.256;10.978;2023-12-29T05:48:25;7.20;98.00
26575;DHT22;67165;50.256;10.978;2023-12-29T05:50:51;7.10;98.00
26575;DHT22;67165;50.256;10.978;2023-12-29T05:53:17;7.10;98.00
26575;DHT22;67165;50.256;10.978;2023-12-29T05:55:45;7.20;98.00
26575;DHT22;67165;50.256;10.978;2023-12-29T05:58:11;7.20;98.00
26575;DHT22;67165;50.256;10.978;2023-12-29T06:00:37;7.20;98.00
26575;DHT22;67165;50.256;10.978;2023-12-29T06:03:04;7.20;98.00
26575;DHT22;67165;50.256;10.978;2023-12-29T06:05:30;7.20;98.00
26575;DHT22;67165;50.256;10.978;2023-12-29T06:07:56;7.20;98.00
26575;DHT22;67165;50.256;10.978;2023-12-29T06:10:22;7.30;98.00
26575;DHT22;67165;50.256;10.978;2023-12-29T06:12:48;7.30;98.00
26575;DHT22;67165;50.256;10.978;2023-12-29T06:15:13;7.30;98.00
26575;DHT22;67165;50.256;10.978;2023-12-29T06:17:40;7.20;98.00
26575;DHT22;67165;50.256;10.978;2023-12-29T06:20:06;7.20;98.00
26575;DHT22;67165;50.256;10.978;2023-12-29T06:22:32;7.20;98.00
26575;DHT22;67165;50.256;10.978;2023-12-29T06:24:58;7.20;98.00
26575;DHT22;67165;50.256;10.978;2023-12-29T06:27:25;7.20;98.00
26575;DHT22;67165;50.256;10.978;2023-12-29T06:29:51;7.20;98.00
26575;DHT22;67165;50.256;10.978;2023-12-29T06:32:17;7.20;98.00
26575;DHT22;67165;50.256;10.978;2023-12-29T06:34:42;7.20;98.00
26575;DHT22;67165;50.256;10.978;2023-12-29T06:37:08;7.20;98.00
26575;DHT22;67165;50.256;10.978;2023-12-29T06:39:34;7.20;98.00
26575;DHT22;67165;50.256;10.978;2023-12-29T06:42:00;7.20;98.00
26575;DHT22;67165;50.256;10.978;2023-12-29T06:44:25;7.20;98.00
26575;DHT22;67165;50.256;10.978;2023-12-29T06:46:51;7.30;98.00
26575;DHT22;67165;50.256;10.978;2023-12-29T06:49:16;7.30;98.00
26575;DHT22;67165;50.256;10.978;2023-12-29T06:51:42;7.30;98.00
26575;DHT22;67165;50.256;10.978;2023-12-29T06:54:08;7.30;98.00
26575;DHT22;67165;50.256;10.978;2023-12-29T06:56:34;7.30;98.00
26575;DHT22;67165;50.256;10.978;2023-12-29T06:58:59;7.30;98.00
26575;DHT22;67165;50.256;10.978;2023-12-29T07:01:25;7.30;98.00
26575;DHT22;67165;50.256;10.978;2023-12-29T07:03:50;7.30;98.00
26575;DHT22;67165;50.256;10.978;2023-12-29T07:06:16;7.40;98.00
26575;DHT22;67165;50.256;10.978;2023-12-29T07:08:42;7.40;98.00
26575;DHT22;67165;50.256;10.978;2023-12-29T07:11:11;7.40;98.00
26575;DHT22;67165;50.256;10.978;2023-12-29T07:13:39;7.40;98.00
26575;DHT22;67165;50.256;10.978;2023-12-29T07:16:05;7.40;98.00
26575;DHT22;67165;50.256;10.978;2023-12-29T07:18:31;7.40;98.00
26575;DHT22;67165;50.256;10.978;2023-12-29T07:20:56;7.30;98.00
26575;DHT22;67165;50.256;10.978;2023-12-29T07:23:22;7.30;98.00
26575;DHT22;67165;50.256;10.978;2023-12-29T07:25:48;7.30;98.00
26575;DHT22;67165;50.256;10.978;2023-12-29T07:28:14;7.20;98.00
26575;DHT22;67165;50.256;10.978;2023-12-29T07:30:40;7.20;98.00
26575;DHT22;67165;50.256;10.978;2023-12-29T07:33:05;7.20;98.00
26575;DHT22;67165;50.256;10.978;2023-12-29T07:35:31;7.20;98.00
26575;DHT22;67165;50.256;10.978;2023-12-29T07:37:57;7.30;98.00
26575;DHT22;67165;50.256;10.978;2023-12-29T07:40:23;7.30;98.00
26575;DHT22;67165;50.256;10.978;2023-12-29T07:42:48;7.40;98.00
26575;DHT22;67165;50.256;10.978;2023-12-29T07:45:16;7.50;98.00
26575;DHT22;67165;50.256;10.978;2023-12-29T07:47:42;7.50;98.00
26575;DHT22;67165;50.256;10.978;2023-12-29T07:50:08;7.50;98.00
26575;DHT22;67165;50.256;10.978;2023-12-29T07:52:34;7.70;98.00
26575;DHT22;67165;50.256;10.978;2023-12-29T07:55:00;7.70;98.00
26575;DHT22;67165;50.256;10.978;2023-12-29T07:57:25;7.70;98.00
26575;DHT22;67165;50.256;10.978;2023-12-29T07:59:51;7.70;98.00
26575;DHT22;67165;50.256;10.978;2023-12-29T08:02:17;7.80;98.00
26575;DHT22;67165;50.256;10.978;2023-12-29T08:04:42;7.90;98.00
26575;DHT22;67165;50.256;10.978;2023-12-29T08:07:08;7.90;98.00
26575;DHT22;67165;50.256;10.978;2023-12-29T08:09:35;7.90;98.00
26575;DHT22;67165;50.256;10.978;2023-12-29T08:12:00;7.90;98.00
26575;DHT22;67165;50.256;10.978;2023-12-29T08:14:26;8.00;98.00
26575;DHT22;67165;50.256;10.978;2023-12-29T08:16:52;7.90;98.00
26575;DHT22;67165;50.256;10.978;2023-12-29T08:19:17;8.00;98.00
26575;DHT22;67165;50.256;10.978;2023-12-29T08:21:43;8.00;98.00
26575;DHT22;67165;50.256;10.978;2023-12-29T08:24:09;8.10;98.00
26575;DHT22;67165;50.256;10.978;2023-12-29T08:26:34;8.00;98.00
26575;DHT22;67165;50.256;10.978;2023-12-29T08:29:07;8.10;98.00
26575;DHT22;67165;50.256;10.978;2023-12-29T08:31:32;8.10;98.00
26575;DHT22;67165;50.256;10.978;2023-12-29T08:33:58;8.10;98.00
26575;DHT22;67165;50.256;10.978;2023-12-29T08:36:24;8.20;98.00
26575;DHT22;67165;50.256;10.978;2023-12-29T08:38:49;8.20;98.00
26575;DHT22;67165;50.256;10.978;2023-12-29T08:41:15;8.30;98.00
26575;DHT22;67165;50.256;10.978;2023-12-29T08:43:41;8.40;98.00
26575;DHT22;67165;50.256;10.978;2023-12-29T08:46:06;8.40;98.00
26575;DHT22;67165;50.256;10.978;2023-12-29T08:48:32;8.40;98.00
26575;DHT22;67165;50.256;10.978;2023-12-29T08:50:58;8.40;98.00
26575;DHT22;67165;50.256;10.978;2023-12-29T08:53:24;8.40;98.00
26575;DHT22;67165;50.256;10.978;2023-12-29T08:55:50;8.40;98.00
26575;DHT22;67165;50.256;10.978;2023-12-29T08:58:16;8.50;98.00
26575;DHT22;67165;50.256;10.978;2023-12-29T09:00:42;8.50;98.00
26575;DHT22;67165;50.256;10.978;2023-12-29T09:03:07;8.50;98.00
26575;DHT22;67165;50.256;10.978;2023-12-29T09:05:33;8.60;98.00
26575;DHT22;67165;50.256;10.978;2023-12-29T09:07:59;8.60;98.00
26575;DHT22;67165;50.256;10.978;2023-12-29T09:10:24;8.80;98.00
26575;DHT22;67165;50.256;10.978;2023-12-29T09:12:50;8.80;98.00
26575;DHT22;67165;50.256;10.978;2023-12-29T09:15:16;8.90;98.00
26575;DHT22;67165;50.256;10.978;2023-12-29T09:17:42;8.90;98.00
26575;DHT22;67165;50.256;10.978;2023-12-29T09:20:08;9.00;98.00
26575;DHT22;67165;50.256;10.978;2023-12-29T09:22:34;9.00;98.00
26575;DHT22;67165;50.256;10.978;2023-12-29T09:25:00;9.00;98.00
26575;DHT22;67165;50.256;10.978;2023-12-29T09:27:25;9.00;98.00
26575;DHT22;67165;50.256;10.978;2023-12-29T09:29:51;9.10;98.00
26575;DHT22;67165;50.256;10.978;2023-12-29T09:32:16;9.10;98.00
26575;DHT22;67165;50.256;10.978;2023-12-29T09:34:42;9.00;98.00
26575;DHT22;67165;50.256;10.978;2023-12-29T09:37:08;9.10;98.00
26575;DHT22;67165;50.256;10.978;2023-12-29T09:39:34;9.20;98.00
26575;DHT22;67165;50.256;10.978;2023-12-29T09:41:59;9.20;98.00
26575;DHT22;67165;50.256;10.978;2023-12-29T09:44:27;9.20;98.00
26575;DHT22;67165;50.256;10.978;2023-12-29T09:47:00;9.30;98.00
26575;DHT22;67165;50.256;10.978;2023-12-29T09:49:27;9.40;98.00
26575;DHT22;67165;50.256;10.978;2023-12-29T09:51:57;9.40;98.00
26575;DHT22;67165;50.256;10.978;2023-12-29T09:54:23;9.40;98.00
26575;DHT22;67165;50.256;10.978;2023-12-29T09:56:50;9.40;98.00
26575;DHT22;67165;50.256;10.978;2023-12-29T09:59:16;9.40;98.00
26575;DHT22;67165;50.256;10.978;2023-12-29T10:01:44;9.40;98.00
26575;DHT22;67165;50.256;10.978;2023-12-29T10:04:11;9.40;98.00
26575;DHT22;67165;50.256;10.978;2023-12-29T10:06:44;9.30;98.00
26575;DHT22;67165;50.256;10.978;2023-12-29T10:09:14;9.30;98.00
26575;DHT22;67165;50.256;10.978;2023-12-29T10:15:19;9.30;98.00
26575;DHT22;67165;50.256;10.978;2023-12-29T10:23:20;9.20;98.00
26575;DHT22;67165;50.256;10.978;2023-12-29T10:25:49;9.20;98.00
26575;DHT22;67165;50.256;10.978;2023-12-29T10:28:17;9.20;98.00
26575;DHT22;67165;50.256;10.978;2023-12-29T10:30:46;9.20;98.00
26575;DHT22;67165;50.256;10.978;2023-12-29T10:33:19;9.20;98.00
26575;DHT22;67165;50.256;10.978;2023-12-29T12:19:04;9.70;98.00
26575;DHT22;67165;50.256;10.978;2023-12-29T12:21:30;9.70;98.00
26575;DHT22;67165;50.256;10.978;2023-12-29T12:23:56;9.90;98.00
26575;DHT22;67165;50.256;10.978;2023-12-29T12:26:25;9.80;98.00
26575;DHT22;67165;50.256;10.978;2023-12-29T12:28:54;9.70;98.00
26575;DHT22;67165;50.256;10.978;2023-12-29T12:31:20;9.60;98.00
26575;DHT22;67165;50.256;10.978;2023-12-29T12:33:58;9.60;98.00
26575;DHT22;67165;50.256;10.978;2023-12-29T12:36:25;9.60;98.00
26575;DHT22;67165;50.256;10.978;2023-12-29T12:38:55;9.60;98.00
26575;DHT22;67165;50.256;10.978;2023-12-29T12:41:25;9.50;98.00
26575;DHT22;67165;50.256;10.978;2023-12-29T12:44:10;9.50;98.00
26575;DHT22;67165;50.256;10.978;2023-12-29T12:47:01;9.60;98.00
26575;DHT22;67165;50.256;10.978;2023-12-29T12:49:29;9.60;98.00
26575;DHT22;67165;50.256;10.978;2023-12-29T12:51:55;9.60;98.00
26575;DHT22;67165;50.256;10.978;2023-12-29T12:54:21;9.60;98.00
26575;DHT22;67165;50.256;10.978;2023-12-29T12:56:48;9.60;98.00
26575;DHT22;67165;50.256;10.978;2023-12-29T12:59:14;9.60;98.00
26575;DHT22;67165;50.256;10.978;2023-12-29T13:01:41;9.50;98.00
26575;DHT22;67165;50.256;10.978;2023-12-29T13:04:07;9.60;98.00
26575;DHT22;67165;50.256;10.978;2023-12-29T13:06:34;9.60;98.00
26575;DHT22;67165;50.256;10.978;2023-12-29T13:09:04;9.60;98.00
26575;DHT22;67165;50.256;10.978;2023-12-29T13:11:34;9.60;98.00
26575;DHT22;67165;50.256;10.978;2023-12-29T13:14:00;9.60;98.00
26575;DHT22;67165;50.256;10.978;2023-12-29T13:16:35;9.50;98.00
26575;DHT22;67165;50.256;10.978;2023-12-29T13:19:23;9.50;98.00
26575;DHT22;67165;50.256;10.978;2023-12-29T13:21:54;9.50;98.00
26575;DHT22;67165;50.256;10.978;2023-12-29T13:24:23;9.50;98.00
26575;DHT22;67165;50.256;10.978;2023-12-29T13:26:52;9.50;98.00
26575;DHT22;67165;50.256;10.978;2023-12-29T13:29:22;9.40;98.00
26575;DHT22;67165;50.256;10.978;2023-12-29T13:31:53;9.40;98.00
26575;DHT22;67165;50.256;10.978;2023-12-29T13:34:51;9.40;98.00
26575;DHT22;67165;50.256;10.978;2023-12-29T13:37:25;9.40;98.00
26575;DHT22;67165;50.256;10.978;2023-12-29T13:39:58;9.40;98.00
26575;DHT22;67165;50.256;10.978;2023-12-29T13:42:27;9.40;98.00
26575;DHT22;67165;50.256;10.978;2023-12-29T13:44:54;9.40;98.00
26575;DHT22;67165;50.256;10.978;2023-12-29T13:47:20;9.40;98.00
26575;DHT22;67165;50.256;10.978;2023-12-29T13:49:46;9.40;98.00
26575;DHT22;67165;50.256;10.978;2023-12-29T13:52:14;9.40;98.00
26575;DHT22;67165;50.256;10.978;2023-12-29T13:54:41;9.50;98.00
26575;DHT22;67165;50.256;10.978;2023-12-29T13:57:11;9.40;98.00
26575;DHT22;67165;50.256;10.978;2023-12-29T13:59:38;9.50;98.00
26575;DHT22;67165;50.256;10.978;2023-12-29T14:02:27;9.60;98.00
26575;DHT22;67165;50.256;10.978;2023-12-29T14:08:05;9.60;98.00
26575;DHT22;67165;50.256;10.978;2023-12-29T14:10:35;9.50;98.00
26575;DHT22;67165;50.256;10.978;2023-12-29T14:13:14;9.50;98.00
26575;DHT22;67165;50.256;10.978;2023-12-29T14:15:41;9.50;98.00
26575;DHT22;67165;50.256;10.978;2023-12-29T14:20:40;9.50;98.00
26575;DHT22;67165;50.256;10.978;2023-12-29T14:23:06;9.60;98.00
26575;DHT22;67165;50.256;10.978;2023-12-29T14:25:36;9.60;98.00
26575;DHT22;67165;50.256;10.978;2023-12-29T14:28:17;9.60;98.00
26575;DHT22;67165;50.256;10.978;2023-12-29T14:30:44;9.60;98.00
26575;DHT22;67165;50.256;10.978;2023-12-29T14:33:10;9.50;98.00
26575;DHT22;67165;50.256;10.978;2023-12-29T14:35:36;9.50;98.00
26575;DHT22;67165;50.256;10.978;2023-12-29T14:38:01;9.40;98.00
26575;DHT22;67165;50.256;10.978;2023-12-29T14:40:27;9.40;98.00
26575;DHT22;67165;50.256;10.978;2023-12-29T14:42:55;9.40;98.00
26575;DHT22;67165;50.256;10.978;2023-12-29T14:45:21;9.40;98.00
26575;DHT22;67165;50.256;10.978;2023-12-29T14:47:47;9.40;98.00
26575;DHT22;67165;50.256;10.978;2023-12-29T14:50:15;9.30;98.00
26575;DHT22;67165;50.256;10.978;2023-12-29T14:52:41;9.30;98.00
26575;DHT22;67165;50.256;10.978;2023-12-29T14:55:07;9.30;98.00
26575;DHT22;67165;50.256;10.978;2023-12-29T14:57:33;9.30;98.00
26575;DHT22;67165;50.256;10.978;2023-12-29T14:59:59;9.30;98.00
26575;DHT22;67165;50.256;10.978;2023-12-29T15:02:24;9.30;98.00
26575;DHT22;67165;50.256;10.978;2023-12-29T15:04:50;9.30;98.00
26575;DHT22;67165;50.256;10.978;2023-12-29T15:07:16;9.30;98.00
26575;DHT22;67165;50.256;10.978;2023-12-29T15:09:44;9.30;98.00
26575;DHT22;67165;50.256;10.978;2023-12-29T15:12:09;9.30;98.00
26575;DHT22;67165;50.256;10.978;2023-12-29T15:14:35;9.30;98.00
26575;DHT22;67165;50.256;10.978;2023-12-29T15:17:00;9.20;98.00
26575;DHT22;67165;50.256;10.978;2023-12-29T15:19:26;9.20;98.00
26575;DHT22;67165;50.256;10.978;2023-12-29T15:21:52;9.20;98.00
26575;DHT22;67165;50.256;10.978;2023-12-29T15:24:22;9.20;98.00
26575;DHT22;67165;50.256;10.978;2023-12-29T15:26:49;9.30;98.00
26575;DHT22;67165;50.256;10.978;2023-12-29T15:29:14;9.30;98.00
26575;DHT22;67165;50.256;10.978;2023-12-29T15:31:43;9.30;98.00
26575;DHT22;67165;50.256;10.978;2023-12-29T15:34:12;9.20;98.00
26575;DHT22;67165;50.256;10.978;2023-12-29T15:36:38;9.30;98.00
26575;DHT22;67165;50.256;10.978;2023-12-29T15:39:04;9.30;98.00
26575;DHT22;67165;50.256;10.978;2023-12-29T15:41:33;9.30;98.00
26575;DHT22;67165;50.256;10.978;2023-12-29T15:43:59;9.30;98.00
26575;DHT22;67165;50.256;10.978;2023-12-29T15:46:25;9.30;98.00
26575;DHT22;67165;50.256;10.978;2023-12-29T15:48:51;9.30;98.00
26575;DHT22;67165;50.256;10.978;2023-12-29T15:51:16;9.30;98.00
26575;DHT22;67165;50.256;10.978;2023-12-29T15:53:42;9.40;98.00
26575;DHT22;67165;50.256;10.978;2023-12-29T15:56:18;9.30;98.00
26575;DHT22;67165;50.256;10.978;2023-12-29T15:58:45;9.30;98.00
26575;DHT22;67165;50.256;10.978;2023-12-29T16:01:20;9.30;98.00
26575;DHT22;67165;50.256;10.978;2023-12-29T16:03:47;9.30;98.00
26575;DHT22;67165;50.256;10.978;2023-12-29T16:06:23;9.30;98.00
26575;DHT22;67165;50.256;10.978;2023-12-29T16:08:50;9.30;98.00
26575;DHT22;67165;50.256;10.978;2023-12-29T16:11:23;9.20;98.00
26575;DHT22;67165;50.256;10.978;2023-12-29T16:13:52;9.20;98.00
26575;DHT22;67165;50.256;10.978;2023-12-29T16:16:18;9.20;98.00
26575;DHT22;67165;50.256;10.978;2023-12-29T16:18:44;9.10;98.00
26575;DHT22;67165;50.256;10.978;2023-12-29T16:21:14;9.10;98.00
26575;DHT22;67165;50.256;10.978;2023-12-29T16:23:39;9.20;98.00
26575;DHT22;67165;50.256;10.978;2023-12-29T16:26:09;9.10;98.00
26575;DHT22;67165;50.256;10.978;2023-12-29T16:28:36;9.10;98.00
26575;DHT22;67165;50.256;10.978;2023-12-29T16:31:04;9.10;98.00
26575;DHT22;67165;50.256;10.978;2023-12-29T16:33:30;9.10;98.00
26575;DHT22;67165;50.256;10.978;2023-12-29T16:35:59;9.20;98.00
26575;DHT22;67165;50.256;10.978;2023-12-29T16:38:26;9.20;98.00
26575;DHT22;67165;50.256;10.978;2023-12-29T16:40:53;9.20;98.00
26575;DHT22;67165;50.256;10.978;2023-12-29T16:43:20;9.20;98.00
26575;DHT22;67165;50.256;10.978;2023-12-29T16:45:45;9.20;98.00
26575;DHT22;67165;50.256;10.978;2023-12-29T16:48:11;9.20;98.00
26575;DHT22;67165;50.256;10.978;2023-12-29T16:50:36;9.30;98.00
26575;DHT22;67165;50.256;10.978;2023-12-29T16:53:05;9.20;98.00
26575;DHT22;67165;50.256;10.978;2023-12-29T16:55:31;9.30;98.00
26575;DHT22;67165;50.256;10.978;2023-12-29T16:57:57;9.30;98.00
26575;DHT22;67165;50.256;10.978;2023-12-29T17:00:22;9.30;98.00
26575;DHT22;67165;50.256;10.978;2023-12-29T17:02:48;9.30;98.00
26575;DHT22;67165;50.256;10.978;2023-12-29T17:05:14;9.30;98.00
26575;DHT22;67165;50.256;10.978;2023-12-29T17:07:39;9.30;98.00
26575;DHT22;67165;50.256;10.978;2023-12-29T17:10:06;9.30;98.00
26575;DHT22;67165;50.256;10.978;2023-12-29T17:12:32;9.30;98.00
26575;DHT22;67165;50.256;10.978;2023-12-29T17:15:00;9.30;98.00
26575;DHT22;67165;50.256;10.978;2023-12-29T17:17:26;9.40;98.00
26575;DHT22;67165;50.256;10.978;2023-12-29T17:20:00;9.40;98.00
26575;DHT22;67165;50.256;10.978;2023-12-29T17:22:26;9.30;98.00
26575;DHT22;67165;50.256;10.978;2023-12-29T17:24:52;9.30;98.00
26575;DHT22;67165;50.256;10.978;2023-12-29T17:27:18;9.30;98.00
26575;DHT22;67165;50.256;10.978;2023-12-29T17:29:44;9.30;98.00